Onego Capri — V2ED7 — position and weather

sailwx.info

Track history (hours):
 
Tides and Currents Weather Stations Pressure Air Temp Water Temp Dewpoint Dewpoint Depression Visibility Wind Speed Wind Dir Waves Ship Positions

Onego Capri

Last reported at 2017-Aug-29 14:30 UTC. Time now 2017-Sep-21 05:23 UTC.
Position N 39°43' W 032°01'.
Warning: this ship's position is 22 days out of date.

Length 140 m; draft 8.1 m.

Type: Cargo ship. MMSI: 305394000.

Date/timePositionNaut miles runAvg speedWind from/ knotsBaromVisibWave heightAir tempDewpointWater temp
2017-Aug-29 14:30N 39°43' W 032°01'611.6
2017-Aug-29 14:00N 39°44' W 031°54'611.6
2017-Aug-29 13:30N 39°46' W 031°46'611.8
2017-Aug-29 13:00N 39°47' W 031°39'611.8
2017-Aug-29 12:30N 39°49' W 031°32'611.8
2017-Aug-29 12:00N 39°50' W 031°24'611.7
2017-Aug-29 11:30N 39°52' W 031°17'612.0
2017-Aug-29 11:00N 39°53' W 031°09'5611.6
2017-Aug-29 06:10N 40°06' W 029°58'611.4
2017-Aug-29 05:39N 40°07' W 029°50'211.5
2017-Aug-29 05:30N 40°07' W 029°48'2811.5
2017-Aug-29 03:04N 40°14' W 029°12'111.4
2017-Aug-29 03:00N 40°14' W 029°11'3111.5
2017-Aug-29 00:20N 40°22' W 028°32'711.5
2017-Aug-28 23:43N 40°23' W 028°23'411.2
2017-Aug-28 23:22N 40°24' W 028°18'1811.5
2017-Aug-28 21:51N 40°28' W 027°56'  
2017-Aug-24 03:32N 43°48' W 006°24'512.1
2017-Aug-24 03:08N 43°48' W 006°18'212.1
2017-Aug-24 02:56N 43°48' W 006°14'512.0
2017-Aug-24 02:30N 43°48' W 006°07'612.1
2017-Aug-24 02:00N 43°47' W 005°59'612.1
2017-Aug-24 01:30N 43°47' W 005°50'611.4
2017-Aug-24 01:00N 43°47' W 005°42'611.5
2017-Aug-24 00:30N 43°46' W 005°35'611.8
2017-Aug-24 00:00N 43°45' W 005°27'611.7
2017-Aug-23 23:30N 43°44' W 005°19'611.7
2017-Aug-23 22:59N 43°43' W 005°10'611.4
2017-Aug-23 22:30N 43°43' W 005°03'  
2017-Aug-21 09:53N 43°20' W 003°02'  
Track history (hours):
 
Tides and Currents Weather Stations Pressure Air Temp Water Temp Dewpoint Dewpoint Depression Visibility Wind Speed Wind Dir Waves Ship Positions

Onego Capri

Last reported at 2017-Aug-29 14:30 UTC. Time now 2017-Sep-21 05:23 UTC.
Position N 39°43' W 032°01'.
Warning: this ship's position is 22 days out of date.

Length 140 m; draft 8.1 m.

Type: Cargo ship. MMSI: 305394000.

Date/timePositionNaut miles runAvg speedWind from/ knotsBaromVisibWave heightAir tempDewpointWater temp
2017-Aug-29 14:30N 39°43' W 032°01'611.6
2017-Aug-29 14:00N 39°44' W 031°54'611.6
2017-Aug-29 13:30N 39°46' W 031°46'611.8
2017-Aug-29 13:00N 39°47' W 031°39'611.8
2017-Aug-29 12:30N 39°49' W 031°32'611.8
2017-Aug-29 12:00N 39°50' W 031°24'611.7
2017-Aug-29 11:30N 39°52' W 031°17'612.0
2017-Aug-29 11:00N 39°53' W 031°09'5611.6
2017-Aug-29 06:10N 40°06' W 029°58'611.4
2017-Aug-29 05:39N 40°07' W 029°50'211.5
2017-Aug-29 05:30N 40°07' W 029°48'2811.5
2017-Aug-29 03:04N 40°14' W 029°12'111.4
2017-Aug-29 03:00N 40°14' W 029°11'3111.5
2017-Aug-29 00:20N 40°22' W 028°32'711.5
2017-Aug-28 23:43N 40°23' W 028°23'411.2
2017-Aug-28 23:22N 40°24' W 028°18'1811.5
2017-Aug-28 21:51N 40°28' W 027°56'  
2017-Aug-24 03:32N 43°48' W 006°24'512.1
2017-Aug-24 03:08N 43°48' W 006°18'212.1
2017-Aug-24 02:56N 43°48' W 006°14'512.0
2017-Aug-24 02:30N 43°48' W 006°07'612.1
2017-Aug-24 02:00N 43°47' W 005°59'612.1
2017-Aug-24 01:30N 43°47' W 005°50'611.4
2017-Aug-24 01:00N 43°47' W 005°42'611.5
2017-Aug-24 00:30N 43°46' W 005°35'611.8
2017-Aug-24 00:00N 43°45' W 005°27'611.7
2017-Aug-23 23:30N 43°44' W 005°19'611.7
2017-Aug-23 22:59N 43°43' W 005°10'611.4
2017-Aug-23 22:30N 43°43' W 005°03'  
2017-Aug-21 09:53N 43°20' W 003°02'  

Dump ship's entire track history